createdAt,value
2023-02-27T00:02:33.006Z,95122.63
2023-02-27T00:05:27.002Z,95113.44
2023-02-27T00:08:14.018Z,95115.94
2023-02-27T00:10:53.991Z,95108.41
2023-02-27T00:13:41.982Z,95115.00
2023-02-27T00:16:22.039Z,95111.47
2023-02-27T00:19:16.055Z,95122.31
2023-02-27T00:22:02.993Z,95115.56
2023-02-27T00:24:43.052Z,95116.41
2023-02-27T00:27:37.055Z,95109.69
2023-02-27T00:30:33.142Z,95118.16
2023-02-27T00:33:26.995Z,95117.31
2023-02-27T00:36:14.024Z,95116.41
2023-02-27T00:38:47.117Z,95108.09
2023-02-27T00:41:34.041Z,95103.78
2023-02-27T00:44:07.105Z,95118.00
2023-02-27T00:46:54.124Z,95107.97
2023-02-27T00:49:34.012Z,95103.72
2023-02-27T00:52:27.997Z,95114.59
2023-02-27T00:55:23.170Z,95116.47
2023-02-27T00:58:10.008Z,95126.34
2023-02-27T01:00:43.277Z,95121.09
2023-02-27T01:03:30.023Z,95123.66
2023-02-27T01:06:03.164Z,95125.41
2023-02-27T01:08:50.061Z,95122.91
2023-02-27T01:11:23.301Z,95125.41
2023-02-27T01:14:10.005Z,95124.56
2023-02-27T01:16:43.199Z,95131.22
2023-02-27T01:19:30.029Z,95136.28
2023-02-27T01:22:03.215Z,95142.19
2023-02-27T01:24:50.025Z,95130.53
2023-02-27T01:27:23.382Z,95125.47
2023-02-27T01:30:11.046Z,95128.88
2023-02-27T01:32:44.240Z,95132.25
2023-02-27T01:35:31.028Z,95126.47
2023-02-27T01:38:11.044Z,95130.69
2023-02-27T01:41:05.040Z,95134.69
2023-02-27T01:44:23.048Z,95143.03
2023-02-27T01:47:10.046Z,95143.09
2023-02-27T01:49:43.215Z,95142.34
2023-02-27T01:52:30.034Z,95144.91
2023-02-27T01:55:04.166Z,95149.03
2023-02-27T01:57:53.025Z,95153.28
2023-02-27T02:00:27.139Z,95148.22
2023-02-27T02:03:30.042Z,95147.44
2023-02-27T02:06:13.031Z,95153.13
2023-02-27T02:09:09.040Z,95158.19
2023-02-27T02:12:03.023Z,95148.06
2023-02-27T02:14:51.060Z,95143.88
2023-02-27T02:18:03.163Z,95149.88
2023-02-27T02:21:11.059Z,95149.63
2023-02-27T02:23:44.145Z,95148.91
2023-02-27T02:26:52.059Z,95148.88
2023-02-27T02:29:47.091Z,95153.13
2023-02-27T02:32:53.019Z,95160.56
2023-02-27T02:35:39.049Z,95166.44
2023-02-27T02:38:46.059Z,95164.84
2023-02-27T02:41:53.032Z,95161.41
2023-02-27T02:44:41.297Z,95161.47
2023-02-27T02:47:43.039Z,95168.22
2023-02-27T02:50:24.165Z,95166.44
2023-02-27T02:53:19.120Z,95162.00
2023-02-27T02:55:57.174Z,95162.06
2023-02-27T02:59:05.073Z,95167.09
2023-02-27T03:01:49.134Z,95166.44
2023-02-27T03:04:53.034Z,95174.84
2023-02-27T03:07:55.078Z,95182.50
2023-02-27T03:10:43.040Z,95184.94
2023-02-27T03:13:49.050Z,95187.44
2023-02-27T03:16:58.048Z,95184.78
2023-02-27T03:20:02.056Z,95185.59
2023-02-27T03:22:53.037Z,95190.63
2023-02-27T03:25:32.184Z,95198.16
2023-02-27T03:28:26.050Z,95208.22
2023-02-27T03:31:40.082Z,95202.31
2023-02-27T03:34:42.057Z,95204.88
2023-02-27T03:37:53.049Z,95218.16
2023-02-27T03:40:42.177Z,95220.81
2023-02-27T03:43:43.036Z,95214.94
2023-02-27T03:46:27.093Z,95220.81
2023-02-27T03:49:21.047Z,95225.75
2023-02-27T03:52:08.065Z,95227.19
2023-02-27T03:54:45.156Z,95222.13
2023-02-27T03:57:32.065Z,95232.88
2023-02-27T04:00:06.298Z,95236.06
2023-02-27T04:02:57.129Z,95232.72
2023-02-27T04:05:30.243Z,95236.94
2023-02-27T04:08:30.147Z,95242.75
2023-02-27T04:11:41.295Z,95242.81
2023-02-27T04:14:47.247Z,95254.34
2023-02-27T04:17:30.278Z,95251.84
2023-02-27T04:20:42.111Z,95257.75
2023-02-27T04:23:54.061Z,95256.00
2023-02-27T04:27:10.098Z,95253.41
2023-02-27T04:29:56.291Z,95265.91
2023-02-27T04:32:58.072Z,95258.41
2023-02-27T04:36:00.092Z,95255.84
2023-02-27T04:38:58.080Z,95256.63
2023-02-27T04:41:51.281Z,95256.41
2023-02-27T04:44:27.252Z,95255.50
2023-02-27T04:47:18.109Z,95256.28
2023-02-27T04:50:01.279Z,95258.91
2023-02-27T04:52:58.108Z,95262.34
2023-02-27T04:55:47.082Z,95263.13
2023-02-27T04:59:16.089Z,95259.59
2023-02-27T05:02:19.249Z,95271.31
2023-02-27T05:05:01.113Z,95274.44
2023-02-27T05:08:30.086Z,95280.19
2023-02-27T05:11:42.094Z,95274.38
2023-02-27T05:15:21.071Z,95272.56
2023-02-27T05:18:11.119Z,95264.25
2023-02-27T05:21:15.288Z,95268.47
2023-02-27T05:24:08.108Z,95269.22
2023-02-27T05:27:14.085Z,95263.25
2023-02-27T05:30:15.149Z,95261.28
2023-02-27T05:33:28.089Z,95266.19
2023-02-27T05:36:25.259Z,95264.59
2023-02-27T05:39:16.082Z,95266.19
2023-02-27T05:41:59.251Z,95273.69
2023-02-27T05:44:52.096Z,95280.41
2023-02-27T05:47:30.227Z,95282.13
2023-02-27T05:50:22.113Z,95287.13
2023-02-27T05:52:58.548Z,95297.88
2023-02-27T05:55:50.114Z,95294.63
2023-02-27T05:58:32.320Z,95296.38
2023-02-27T06:01:19.105Z,95301.47
2023-02-27T06:03:53.828Z,95310.56
2023-02-27T06:06:43.093Z,95309.06
2023-02-27T06:09:16.683Z,95313.31
2023-02-27T06:12:03.164Z,95323.31
2023-02-27T06:14:36.246Z,95330.84
2023-02-27T06:17:26.254Z,95321.75
2023-02-27T06:20:06.091Z,95325.19
2023-02-27T06:23:00.147Z,95318.66
2023-02-27T06:25:49.116Z,95322.00
2023-02-27T06:28:22.254Z,95324.63
2023-02-27T06:31:10.156Z,95330.59
2023-02-27T06:33:43.263Z,95330.66
2023-02-27T06:36:30.440Z,95332.66
2023-02-27T06:39:11.180Z,95342.13
2023-02-27T06:42:05.161Z,95343.88
2023-02-27T06:44:59.090Z,95353.16
2023-02-27T06:47:48.128Z,95355.59
2023-02-27T06:50:21.259Z,95357.41
2023-02-27T06:53:08.087Z,95354.81
2023-02-27T06:55:42.153Z,95362.44
2023-02-27T06:58:31.161Z,95365.03
2023-02-27T07:01:14.162Z,95365.03
2023-02-27T07:04:08.113Z,95364.28
2023-02-27T07:07:35.227Z,95362.84
2023-02-27T07:09:55.164Z,95366.28
2023-02-27T07:12:49.161Z,95365.72
2023-02-27T07:15:36.151Z,95364.81
2023-02-27T07:18:09.260Z,95360.59
2023-02-27T07:20:59.163Z,95361.09
2023-02-27T07:23:32.729Z,95372.94
2023-02-27T07:26:19.174Z,95364.06
2023-02-27T07:28:52.221Z,95361.81
2023-02-27T07:31:39.131Z,95363.56
2023-02-27T07:34:13.110Z,95366.31
2023-02-27T07:37:00.110Z,95363.69
2023-02-27T07:39:33.341Z,95373.66
2023-02-27T07:42:20.119Z,95375.03
2023-02-27T07:44:53.270Z,95377.59
2023-02-27T07:47:40.160Z,95386.25
2023-02-27T07:50:14.256Z,95390.47
2023-02-27T07:53:01.170Z,95391.84
2023-02-27T07:55:34.337Z,95405.22
2023-02-27T07:58:21.207Z,95406.09
2023-02-27T08:01:01.170Z,95396.09
2023-02-27T08:03:48.158Z,95403.00
2023-02-27T08:06:21.897Z,95398.91
2023-02-27T08:09:08.127Z,95404.09
2023-02-27T08:11:49.245Z,95397.31
2023-02-27T08:14:43.178Z,95411.69
2023-02-27T08:17:30.135Z,95409.25
2023-02-27T08:20:04.808Z,95403.56
2023-02-27T08:22:51.174Z,95413.63
2023-02-27T08:25:25.265Z,95418.53
2023-02-27T08:28:12.202Z,95419.16
2023-02-27T08:30:52.140Z,95432.34
2023-02-27T08:33:49.496Z,95427.25
2023-02-27T08:36:36.194Z,95422.22
2023-02-27T08:39:09.373Z,95427.00
2023-02-27T08:41:57.199Z,95437.81
2023-02-27T08:44:30.301Z,95440.38
2023-02-27T08:47:17.168Z,95448.03
2023-02-27T08:49:50.285Z,95446.88
2023-02-27T08:52:37.170Z,95455.53
2023-02-27T08:55:10.307Z,95449.88
2023-02-27T08:57:57.172Z,95461.00
2023-02-27T09:00:32.429Z,95464.66
2023-02-27T09:03:19.169Z,95463.03
2023-02-27T09:05:54.291Z,95479.78
2023-02-27T09:08:41.181Z,95472.19
2023-02-27T09:11:21.175Z,95480.66
2023-02-27T09:14:08.197Z,95479.91
2023-02-27T09:16:48.301Z,95481.81
2023-02-27T09:19:42.213Z,95492.16
2023-02-27T09:22:29.182Z,95489.47
2023-02-27T09:25:02.340Z,95490.22
2023-02-27T09:27:51.208Z,95487.41
2023-02-27T09:30:24.346Z,95481.66
2023-02-27T09:33:11.172Z,95485.03
2023-02-27T09:35:44.322Z,95486.00
2023-02-27T09:38:31.172Z,95483.88
2023-02-27T09:41:04.288Z,95489.31
2023-02-27T09:43:54.196Z,95489.78
2023-02-27T09:46:30.305Z,95486.44
2023-02-27T09:49:22.195Z,95480.25
2023-02-27T09:51:58.282Z,95483.53
2023-02-27T09:54:45.177Z,95486.28
2023-02-27T09:57:25.804Z,95489.88
2023-02-27T10:00:25.190Z,95488.66
2023-02-27T10:03:40.232Z,95478.94
2023-02-27T10:06:55.201Z,95475.94
2023-02-27T10:09:58.201Z,95483.44
2023-02-27T10:12:56.197Z,95487.69
2023-02-27T10:16:00.244Z,95490.06
2023-02-27T10:19:04.213Z,95486.69
2023-02-27T10:22:01.201Z,95495.81
2023-02-27T10:24:54.260Z,95504.25
2023-02-27T10:27:36.197Z,95506.00
2023-02-27T10:30:36.411Z,95503.47
2023-02-27T10:33:34.234Z,95501.91
2023-02-27T10:36:32.413Z,95503.34
2023-02-27T10:39:24.274Z,95505.69
2023-02-27T10:41:58.320Z,95505.63
2023-02-27T10:44:45.195Z,95499.75
2023-02-27T10:47:31.213Z,95502.75
2023-02-27T10:50:39.205Z,95508.53
2023-02-27T10:53:32.205Z,95514.44
2023-02-27T10:56:12.349Z,95501.22
2023-02-27T10:59:16.337Z,95508.09
2023-02-27T11:05:15.185Z,95521.53
2023-02-27T11:08:23.212Z,95514.84
2023-02-27T11:11:18.276Z,95520.56
2023-02-27T11:14:31.211Z,95524.94
2023-02-27T11:17:09.393Z,95526.63
2023-02-27T11:19:56.252Z,95532.81
2023-02-27T11:22:39.209Z,95534.53
2023-02-27T11:25:31.200Z,95534.56
2023-02-27T11:28:41.214Z,95544.63
2023-02-27T11:31:37.233Z,95533.88
2023-02-27T11:34:35.220Z,95532.97
2023-02-27T11:37:33.375Z,95537.75
2023-02-27T11:40:22.228Z,95531.13
2023-02-27T11:43:30.260Z,95532.97
2023-02-27T11:46:46.311Z,95537.16
2023-02-27T11:49:35.219Z,95525.41
2023-02-27T11:52:37.192Z,95528.81
2023-02-27T11:55:29.227Z,95542.94
2023-02-27T11:58:30.266Z,95537.84
2023-02-27T12:01:34.292Z,95538.06
2023-02-27T12:04:24.332Z,95529.00
2023-02-27T12:07:36.257Z,95533.13
2023-02-27T12:10:32.225Z,95533.13
2023-02-27T12:13:33.342Z,95531.72
2023-02-27T12:16:33.298Z,95534.44
2023-02-27T12:19:44.348Z,95535.44
2023-02-27T12:22:40.266Z,95531.41
2023-02-27T12:25:29.432Z,95531.69
2023-02-27T12:28:42.221Z,95531.19
2023-02-27T12:31:33.231Z,95532.88
2023-02-27T12:35:02.260Z,95542.44
2023-02-27T12:37:49.229Z,95542.31
2023-02-27T12:40:24.357Z,95536.09
2023-02-27T12:43:29.310Z,95549.22
2023-02-27T12:46:34.254Z,95541.91
2023-02-27T12:49:49.209Z,95544.41
2023-02-27T12:52:56.228Z,95550.91
2023-02-27T12:55:35.402Z,95552.72
2023-02-27T12:58:31.281Z,95555.88
2023-02-27T13:01:50.349Z,95561.03
2023-02-27T13:05:04.318Z,95561.03
2023-02-27T13:08:16.272Z,95563.81
2023-02-27T13:11:21.290Z,95557.56
2023-02-27T13:13:59.366Z,95557.88
2023-02-27T13:16:49.387Z,95568.06
2023-02-27T13:19:37.413Z,95572.38
2023-02-27T13:22:40.241Z,95568.22
2023-02-27T13:25:20.392Z,95586.81
2023-02-27T13:28:11.258Z,95571.81
2023-02-27T13:31:14.319Z,95575.28
2023-02-27T13:34:18.275Z,95566.69
2023-02-27T13:37:11.340Z,95568.94
2023-02-27T13:39:51.948Z,95568.16
2023-02-27T13:42:39.278Z,95566.09
2023-02-27T13:45:51.501Z,95572.81
2023-02-27T13:48:48.256Z,95577.78
2023-02-27T13:51:50.304Z,95576.78
2023-02-27T13:54:57.289Z,95570.53
2023-02-27T13:57:46.266Z,95571.28
2023-02-27T14:00:31.372Z,95577.34
2023-02-27T14:03:28.270Z,95567.34
2023-02-27T14:06:12.246Z,95571.53
2023-02-27T14:09:14.873Z,95567.19
2023-02-27T14:12:06.275Z,95572.06
2023-02-27T14:14:52.253Z,95577.94
2023-02-27T14:17:54.666Z,95577.78
2023-02-27T14:20:46.270Z,95580.16
2023-02-27T14:23:22.418Z,95585.19
2023-02-27T14:26:22.480Z,95595.09
2023-02-27T14:29:04.407Z,95592.25
2023-02-27T14:31:52.341Z,95594.50
2023-02-27T14:34:28.401Z,95597.88
2023-02-27T14:37:23.283Z,95593.47
2023-02-27T14:40:08.467Z,95608.53
2023-02-27T14:43:08.277Z,95601.94
2023-02-27T14:45:48.388Z,95606.22
2023-02-27T14:48:44.277Z,95608.78
2023-02-27T14:51:32.262Z,95614.53
2023-02-27T14:54:32.399Z,95616.06
2023-02-27T14:57:13.312Z,95610.06
2023-02-27T14:59:56.269Z,95620.00
2023-02-27T15:02:38.386Z,95624.19
2023-02-27T15:05:31.797Z,95626.44
2023-02-27T15:08:14.284Z,95624.00
2023-02-27T15:11:10.280Z,95632.28
2023-02-27T15:14:24.264Z,95633.00
2023-02-27T15:17:23.283Z,95639.00
2023-02-27T15:20:06.382Z,95635.69
2023-02-27T15:22:53.334Z,95634.06
2023-02-27T15:25:42.386Z,95643.22
2023-02-27T15:28:33.283Z,95640.59
2023-02-27T15:31:13.407Z,95648.06
2023-02-27T15:34:07.269Z,95648.66
2023-02-27T15:37:04.337Z,95655.16
2023-02-27T15:39:47.001Z,95654.41
2023-02-27T15:42:38.303Z,95658.50
2023-02-27T15:45:13.386Z,95656.69
2023-02-27T15:48:00.332Z,95662.53
2023-02-27T15:50:44.392Z,95668.28
2023-02-27T15:53:36.350Z,95669.06
2023-02-27T15:56:18.403Z,95673.13
2023-02-27T15:59:07.338Z,95682.09
2023-02-27T16:01:48.350Z,95687.13
2023-02-27T16:04:42.283Z,95687.88
2023-02-27T16:07:39.338Z,95691.03
2023-02-27T16:10:31.331Z,95692.69
2023-02-27T16:13:04.368Z,95695.22
2023-02-27T16:15:51.354Z,95698.38
2023-02-27T16:18:24.384Z,95697.56
2023-02-27T16:21:17.310Z,95705.84
2023-02-27T16:23:52.428Z,95706.66
2023-02-27T16:26:43.312Z,95716.69
2023-02-27T16:29:26.445Z,95716.69
2023-02-27T16:32:31.351Z,95712.34
2023-02-27T16:35:18.303Z,95719.06
2023-02-27T16:38:15.329Z,95730.81
2023-02-27T16:41:02.390Z,95736.63
2023-02-27T16:43:35.464Z,95745.06
2023-02-27T16:46:28.628Z,95747.56
2023-02-27T16:49:17.861Z,95747.66
2023-02-27T16:52:05.297Z,95756.03
2023-02-27T16:54:38.429Z,95751.81
2023-02-27T16:57:25.298Z,95755.19
2023-02-27T17:00:05.312Z,95761.03
2023-02-27T17:02:53.299Z,95761.00
2023-02-27T17:05:26.543Z,95771.72
2023-02-27T17:08:13.359Z,95766.63
2023-02-27T17:10:46.413Z,95775.63
2023-02-27T17:13:33.447Z,95773.78
2023-02-27T17:16:06.432Z,95770.41
2023-02-27T17:18:53.343Z,95774.44
2023-02-27T17:21:27.548Z,95784.41
2023-02-27T17:24:14.326Z,95785.09
2023-02-27T17:26:54.336Z,95790.03
2023-02-27T17:29:44.324Z,95792.47
2023-02-27T17:32:24.375Z,95794.84
2023-02-27T17:35:18.326Z,95791.34
2023-02-27T17:38:07.480Z,95797.19
2023-02-27T17:40:43.531Z,95798.69
2023-02-27T17:43:30.341Z,95798.63
2023-02-27T17:46:03.473Z,95800.34
2023-02-27T17:48:50.343Z,95802.84
2023-02-27T17:51:31.355Z,95798.69
2023-02-27T17:54:25.351Z,95799.56
2023-02-27T17:57:13.334Z,95802.94
2023-02-27T17:59:53.336Z,95809.53
2023-02-27T18:02:40.375Z,95812.03
2023-02-27T18:05:13.546Z,95801.94
2023-02-27T18:08:00.345Z,95805.34
2023-02-27T18:10:40.346Z,95813.72
2023-02-27T18:13:34.450Z,95809.59
2023-02-27T18:16:21.342Z,95813.88
2023-02-27T18:18:55.463Z,95817.31
2023-02-27T18:21:42.403Z,95819.88
2023-02-27T18:24:23.363Z,95821.53
2023-02-27T18:27:18.345Z,95823.09
2023-02-27T18:30:12.383Z,95828.19
2023-02-27T18:33:10.332Z,95834.88
2023-02-27T18:35:57.430Z,95840.72
2023-02-27T18:38:37.365Z,95842.31
2023-02-27T18:41:31.343Z,95845.56
2023-02-27T18:44:18.353Z,95844.63
2023-02-27T18:46:58.410Z,95849.63
2023-02-27T18:49:52.372Z,95856.25
2023-02-27T18:52:39.355Z,95853.59
2023-02-27T18:55:13.458Z,95857.03
2023-02-27T18:58:00.354Z,95862.19
2023-02-27T19:00:33.486Z,95862.09
2023-02-27T19:03:20.414Z,95867.19
2023-02-27T19:06:00.356Z,95866.38
2023-02-27T19:08:54.342Z,95868.78
2023-02-27T19:11:48.392Z,95872.13
2023-02-27T19:14:35.401Z,95870.44
2023-02-27T19:17:15.351Z,95879.66
2023-02-27T19:20:09.408Z,95879.59
2023-02-27T19:22:56.390Z,95881.91
2023-02-27T19:25:29.970Z,95886.00
2023-02-27T19:28:18.364Z,95890.22
2023-02-27T19:30:52.651Z,95890.84
2023-02-27T19:33:39.356Z,95887.63
2023-02-27T19:36:17.799Z,95889.28
2023-02-27T19:39:05.354Z,95896.75
2023-02-27T19:41:38.487Z,95893.31
2023-02-27T19:44:25.366Z,95897.34
2023-02-27T19:47:05.482Z,95899.03
2023-02-27T19:49:52.378Z,95902.47
2023-02-27T19:52:25.464Z,95894.03
2023-02-27T19:55:13.400Z,95904.03
2023-02-27T19:57:46.491Z,95909.88
2023-02-27T20:00:33.386Z,95904.84
2023-02-27T20:03:06.472Z,95903.06
2023-02-27T20:05:53.373Z,95905.44
2023-02-27T20:08:26.545Z,95906.22
2023-02-27T20:11:13.388Z,95901.09
2023-02-27T20:13:46.559Z,95911.84
2023-02-27T20:16:36.391Z,95910.03
2023-02-27T20:19:13.898Z,95905.53
2023-02-27T20:22:03.402Z,95905.41
2023-02-27T20:24:36.481Z,95905.28
2023-02-27T20:27:23.398Z,95903.53
2023-02-27T20:30:08.401Z,95910.06
2023-02-27T20:33:03.423Z,95910.75
2023-02-27T20:35:57.398Z,95908.22
2023-02-27T20:38:45.398Z,95905.53
2023-02-27T20:41:29.962Z,95897.03
2023-02-27T20:44:18.391Z,95899.44
2023-02-27T20:46:58.432Z,95895.09
2023-02-27T20:49:52.385Z,95900.78
2023-02-27T20:52:39.406Z,95905.00
2023-02-27T20:55:13.509Z,95898.97
2023-02-27T20:58:00.407Z,95897.97
2023-02-27T21:00:33.560Z,95903.00
2023-02-27T21:03:20.412Z,95897.84
2023-02-27T21:05:54.489Z,95896.19
2023-02-27T21:08:43.409Z,95902.78
2023-02-27T21:11:37.400Z,95909.34
2023-02-27T21:14:24.429Z,95915.09
2023-02-27T21:16:57.491Z,95912.50
2023-02-27T21:19:46.420Z,95915.81
2023-02-27T21:22:19.503Z,95909.88
2023-02-27T21:25:06.428Z,95918.00
2023-02-27T21:27:46.476Z,95922.78
2023-02-27T21:30:40.406Z,95923.22
2023-02-27T21:33:35.448Z,95939.03
2023-02-27T21:36:29.427Z,95939.75
2023-02-27T21:39:21.429Z,95938.72
2023-02-27T21:42:02.469Z,95946.94
2023-02-27T21:44:56.407Z,95941.72
2023-02-27T21:47:43.416Z,95940.88
2023-02-27T21:50:21.764Z,95941.63
2023-02-27T21:53:08.444Z,95938.28
2023-02-27T21:55:41.539Z,95943.19
2023-02-27T21:58:29.481Z,95935.53
2023-02-27T22:01:03.317Z,95937.03
2023-02-27T22:03:51.441Z,95946.97
2023-02-27T22:06:33.415Z,95951.75
2023-02-27T22:09:27.454Z,95948.16
2023-02-27T22:12:16.142Z,95953.00
2023-02-27T22:14:49.816Z,95958.72
2023-02-27T22:17:36.427Z,95961.13
2023-02-27T22:20:16.433Z,95952.69
2023-02-27T22:23:11.417Z,95954.25
2023-02-27T22:26:08.466Z,95945.97
2023-02-27T22:28:42.628Z,95948.25
2023-02-27T22:31:38.512Z,95943.16
2023-02-27T22:34:25.429Z,95939.81
2023-02-27T22:37:05.413Z,95945.56
2023-02-27T22:40:01.582Z,95942.16
2023-02-27T22:42:58.424Z,95946.06
2023-02-27T22:45:38.437Z,95948.41
2023-02-27T22:48:32.424Z,95939.25
2023-02-27T22:51:28.989Z,95941.75
2023-02-27T22:54:23.444Z,95950.91
2023-02-27T22:57:12.483Z,95940.81
2023-02-27T22:59:52.449Z,95944.16
2023-02-27T23:02:46.446Z,95935.81
2023-02-27T23:05:33.463Z,95950.91
2023-02-27T23:08:06.549Z,95959.13
2023-02-27T23:10:53.457Z,95960.06
2023-02-27T23:13:33.566Z,95964.19
2023-02-27T23:16:27.680Z,95968.25
2023-02-27T23:19:14.459Z,95974.88
2023-02-27T23:21:47.612Z,95980.78
2023-02-27T23:24:34.440Z,95983.94
2023-02-27T23:27:25.074Z,95987.31
2023-02-27T23:30:13.492Z,95986.22
2023-02-27T23:32:46.652Z,95975.97
2023-02-27T23:35:34.495Z,95978.41
2023-02-27T23:38:07.707Z,95970.81
2023-02-27T23:40:54.432Z,95966.66
2023-02-27T23:43:35.441Z,95965.59
2023-02-27T23:46:29.430Z,95992.38
2023-02-27T23:49:17.446Z,95989.13
2023-02-27T23:51:57.426Z,95988.09
2023-02-27T23:54:44.418Z,95999.03
2023-02-27T23:57:24.448Z,95993.78
